Terminal Aerodrome Forecast
Issued by NWS Charleston, SC

Home | Current Version | Previous Version | Text Only | Print | Product List | Glossary On
Versions: 1 2 3 4 5 6 7 8 9 10 11 12 13 14 15 16 17 18 19 20 21
000
FTUS42 KCHS 011733
TAFSAV
TAF
KSAV 011733Z 0118/0218 14006KT P6SM VCTS SCT025 BKN035CB
      TEMPO 0118/0121 4SM TSRA SCT015 BKN025CB
     FM012100 14007KT P6SM VCSH SCT025 BKN100
     FM020000 VRB03KT P6SM SCT200=

USA.gov is the U.S. government's official web portal to all federal, state and local government web resources and services.